createdAt,value
2023-03-04T00:00:15.475Z,55.34
2023-03-04T00:02:41.870Z,54.80
2023-03-04T00:05:08.256Z,53.36
2023-03-04T00:07:34.615Z,52.53
2023-03-04T00:10:00.964Z,53.03
2023-03-04T00:12:27.349Z,49.59
2023-03-04T00:14:53.712Z,47.47
2023-03-04T00:17:20.105Z,50.93
2023-03-04T00:19:46.553Z,50.12
2023-03-04T00:22:12.916Z,51.15
2023-03-04T00:24:39.303Z,50.28
2023-03-04T00:27:05.678Z,50.98
2023-03-04T00:29:32.029Z,49.35
2023-03-04T00:31:58.535Z,52.16
2023-03-04T00:34:24.998Z,53.04
2023-03-04T00:36:51.358Z,52.91
2023-03-04T00:39:17.756Z,53.27
2023-03-04T00:41:44.171Z,52.31
2023-03-04T00:44:10.539Z,54.18
2023-03-04T00:46:36.938Z,54.44
2023-03-04T00:49:03.354Z,52.51
2023-03-04T00:51:29.719Z,52.86
2023-03-04T00:53:56.070Z,52.84
2023-03-04T00:56:22.418Z,52.90
2023-03-04T00:58:48.818Z,52.01
2023-03-04T01:01:15.254Z,52.98
2023-03-04T01:03:41.675Z,53.74
2023-03-04T01:06:08.045Z,51.19
2023-03-04T01:08:34.434Z,51.69
2023-03-04T01:11:00.838Z,51.62
2023-03-04T01:13:27.195Z,52.39
2023-03-04T01:15:53.558Z,51.12
2023-03-04T01:18:19.966Z,52.00
2023-03-04T01:20:46.358Z,54.16
2023-03-04T01:23:12.736Z,54.11
2023-03-04T01:25:39.132Z,52.66
2023-03-04T01:28:05.486Z,52.91
2023-03-04T01:30:31.915Z,52.51
2023-03-04T01:32:58.272Z,53.62
2023-03-04T01:35:24.699Z,54.34
2023-03-04T01:37:51.115Z,54.86
2023-03-04T01:40:17.510Z,54.63
2023-03-04T01:42:43.897Z,54.10
2023-03-04T01:45:10.275Z,55.08
2023-03-04T01:47:36.647Z,55.55
2023-03-04T01:50:03.040Z,55.41
2023-03-04T01:52:29.464Z,55.30
2023-03-04T01:54:55.880Z,55.26
2023-03-04T01:57:22.284Z,55.69
2023-03-04T01:59:48.661Z,55.47
2023-03-04T02:02:15.054Z,56.18
2023-03-04T02:04:41.482Z,56.50
2023-03-04T02:07:07.860Z,57.42
2023-03-04T02:09:34.228Z,57.92
2023-03-04T02:12:00.626Z,57.92
2023-03-04T02:14:26.984Z,58.40
2023-03-04T02:16:53.335Z,58.32
2023-03-04T02:19:19.728Z,58.05
2023-03-04T02:21:46.092Z,57.33
2023-03-04T02:24:12.532Z,57.39
2023-03-04T02:26:38.888Z,58.53
2023-03-04T02:29:05.298Z,58.39
2023-03-04T02:31:31.767Z,58.18
2023-03-04T02:33:58.176Z,57.81
2023-03-04T02:36:24.540Z,56.83
2023-03-04T02:38:50.894Z,59.43
2023-03-04T02:41:17.663Z,59.62
2023-03-04T02:43:44.032Z,58.65
2023-03-04T02:46:10.430Z,58.59
2023-03-04T02:48:36.820Z,57.96
2023-03-04T02:51:03.174Z,58.37
2023-03-04T02:53:29.566Z,57.99
2023-03-04T02:55:55.964Z,58.80
2023-03-04T02:58:22.391Z,57.78
2023-03-04T03:00:48.774Z,58.18
2023-03-04T03:03:15.191Z,57.75
2023-03-04T03:05:41.593Z,57.83
2023-03-04T03:08:07.953Z,58.94
2023-03-04T03:10:34.367Z,56.71
2023-03-04T03:13:00.765Z,58.58
2023-03-04T03:15:27.131Z,57.65
2023-03-04T03:17:53.529Z,57.44
2023-03-04T03:20:19.910Z,58.98
2023-03-04T03:22:46.302Z,58.91
2023-03-04T03:25:12.707Z,57.99
2023-03-04T03:27:39.110Z,57.59
2023-03-04T03:30:05.524Z,58.45
2023-03-04T03:32:32.022Z,58.25
2023-03-04T03:34:58.481Z,57.93
2023-03-04T03:37:24.846Z,58.32
2023-03-04T03:39:51.237Z,57.88
2023-03-04T03:42:17.639Z,58.08
2023-03-04T03:44:43.998Z,57.39
2023-03-04T03:47:10.394Z,56.25
2023-03-04T03:49:36.753Z,56.30
2023-03-04T03:52:03.107Z,56.95
2023-03-04T03:54:29.456Z,57.30
2023-03-04T03:56:55.810Z,56.78
2023-03-04T03:59:22.151Z,56.31
2023-03-04T04:01:48.527Z,57.74
2023-03-04T04:04:14.913Z,57.70
2023-03-04T04:06:41.272Z,57.00
2023-03-04T04:09:07.616Z,57.06
2023-03-04T04:11:34.005Z,56.41
2023-03-04T04:14:00.386Z,56.18
2023-03-04T04:16:26.803Z,57.17
2023-03-04T04:18:53.214Z,56.95
2023-03-04T04:21:19.577Z,56.51
2023-03-04T04:23:45.952Z,56.54
2023-03-04T04:26:12.363Z,55.96
2023-03-04T04:28:38.770Z,54.60
2023-03-04T04:31:05.244Z,54.44
2023-03-04T04:33:31.619Z,55.93
2023-03-04T04:35:57.996Z,54.33
2023-03-04T04:38:24.352Z,55.41
2023-03-04T04:40:50.708Z,56.38
2023-03-04T04:43:17.068Z,55.83
2023-03-04T04:45:43.473Z,54.65
2023-03-04T04:48:09.911Z,55.23
2023-03-04T04:50:36.262Z,55.19
2023-03-04T04:53:02.658Z,55.06
2023-03-04T04:55:29.023Z,54.91
2023-03-04T04:57:55.413Z,55.27
2023-03-04T05:00:21.782Z,55.53
2023-03-04T05:02:48.178Z,55.55
2023-03-04T05:05:14.582Z,55.07
2023-03-04T05:07:40.955Z,54.46
2023-03-04T05:10:07.396Z,54.53
2023-03-04T05:12:33.776Z,53.75
2023-03-04T05:15:00.142Z,54.37
2023-03-04T05:17:26.499Z,55.50
2023-03-04T05:19:52.854Z,55.23
2023-03-04T05:22:19.202Z,54.26
2023-03-04T05:24:45.561Z,53.15
2023-03-04T05:27:11.949Z,53.71
2023-03-04T05:29:38.300Z,53.46
2023-03-04T05:32:04.684Z,55.06
2023-03-04T05:34:31.122Z,54.84
2023-03-04T05:36:57.530Z,52.49
2023-03-04T05:39:23.907Z,52.52
2023-03-04T05:41:50.299Z,53.16
2023-03-04T05:44:16.663Z,53.74
2023-03-04T05:46:43.090Z,53.83
2023-03-04T05:49:09.488Z,54.61
2023-03-04T05:51:35.885Z,53.83
2023-03-04T05:54:02.261Z,53.51
2023-03-04T05:56:28.612Z,53.90
2023-03-04T05:58:54.957Z,53.58
2023-03-04T06:01:21.306Z,53.45
2023-03-04T06:03:47.753Z,53.76
2023-03-04T06:06:14.176Z,54.01
2023-03-04T06:08:40.584Z,54.70
2023-03-04T06:11:06.939Z,54.36
2023-03-04T06:13:33.297Z,54.41
2023-03-04T06:15:59.672Z,53.32
2023-03-04T06:18:26.095Z,52.11
2023-03-04T06:20:52.506Z,51.43
2023-03-04T06:23:18.864Z,52.50
2023-03-04T06:25:45.211Z,52.38
2023-03-04T06:28:11.554Z,51.83
2023-03-04T06:30:37.922Z,52.02
2023-03-04T06:33:04.342Z,51.40
2023-03-04T06:35:30.732Z,53.01
2023-03-04T06:37:57.153Z,50.77
2023-03-04T06:40:23.557Z,50.19
2023-03-04T06:42:49.973Z,53.70
2023-03-04T06:45:16.336Z,49.76
2023-03-04T06:47:42.732Z,52.66
2023-03-04T06:50:09.086Z,50.59
2023-03-04T06:52:35.464Z,50.80
2023-03-04T06:55:01.817Z,50.51
2023-03-04T06:57:28.232Z,49.19
2023-03-04T06:59:54.601Z,49.47
2023-03-04T07:02:20.975Z,49.14
2023-03-04T07:04:47.321Z,50.81
2023-03-04T07:07:13.721Z,54.85
2023-03-04T07:09:40.115Z,51.64
2023-03-04T07:12:06.471Z,50.57
2023-03-04T07:14:32.841Z,51.79
2023-03-04T07:16:59.195Z,51.24
2023-03-04T07:19:25.565Z,49.72
2023-03-04T07:21:51.912Z,49.14
2023-03-04T07:24:18.315Z,49.58
2023-03-04T07:26:44.711Z,49.32
2023-03-04T07:29:11.131Z,50.08
2023-03-04T07:31:37.572Z,50.37
2023-03-04T07:34:03.972Z,49.08
2023-03-04T07:36:30.329Z,49.35
2023-03-04T07:38:56.690Z,49.16
2023-03-04T07:41:23.102Z,49.41
2023-03-04T07:43:49.500Z,49.53
2023-03-04T07:46:15.921Z,49.13
2023-03-04T07:48:42.270Z,49.04
2023-03-04T07:51:08.645Z,49.31
2023-03-04T07:53:35.106Z,55.05
2023-03-04T07:56:02.729Z,56.24
2023-03-04T07:58:29.199Z,58.44
2023-03-04T08:00:55.545Z,58.93
2023-03-04T08:03:21.910Z,57.84
2023-03-04T08:05:48.296Z,56.03
2023-03-04T08:08:16.401Z,55.83
2023-03-04T08:10:43.757Z,56.90
2023-03-04T08:13:10.145Z,60.10
2023-03-04T08:15:36.560Z,61.55
2023-03-04T08:18:02.973Z,60.00
2023-03-04T08:20:29.367Z,60.48
2023-03-04T08:22:55.767Z,59.87
2023-03-04T08:25:22.120Z,60.68
2023-03-04T08:27:48.507Z,61.93
2023-03-04T08:30:14.902Z,61.35
2023-03-04T08:32:41.355Z,61.27
2023-03-04T08:35:07.817Z,61.32
2023-03-04T08:37:34.230Z,60.84
2023-03-04T08:40:00.725Z,60.78
2023-03-04T08:42:27.098Z,60.59
2023-03-04T08:44:53.502Z,59.97
2023-03-04T08:47:19.909Z,59.16
2023-03-04T08:49:46.304Z,59.10
2023-03-04T08:52:12.702Z,57.66
2023-03-04T08:54:39.103Z,55.24
2023-03-04T08:57:05.460Z,52.74
2023-03-04T08:59:31.845Z,50.53
2023-03-04T09:01:58.275Z,48.10
2023-03-04T09:04:24.697Z,51.99
2023-03-04T09:06:52.873Z,50.85
2023-03-04T09:09:20.318Z,49.92
2023-03-04T09:11:46.779Z,50.78
2023-03-04T09:14:13.164Z,50.78
2023-03-04T09:16:39.593Z,51.07
2023-03-04T09:19:05.967Z,50.07
2023-03-04T09:21:32.367Z,49.77
2023-03-04T09:23:58.762Z,50.86
2023-03-04T09:26:25.176Z,47.50
2023-03-04T09:28:51.584Z,48.58
2023-03-04T09:31:18.014Z,50.27
2023-03-04T09:33:44.432Z,50.07
2023-03-04T09:36:10.842Z,51.08
2023-03-04T09:38:37.234Z,48.57
2023-03-04T09:41:03.601Z,47.81
2023-03-04T09:43:30.091Z,46.51
2023-03-04T09:45:56.511Z,46.79
2023-03-04T09:48:22.903Z,46.64
2023-03-04T09:50:49.262Z,46.69
2023-03-04T09:53:15.660Z,47.73
2023-03-04T09:55:42.028Z,48.14
2023-03-04T09:58:08.418Z,47.56
2023-03-04T10:00:35.962Z,47.13
2023-03-04T10:03:02.337Z,47.85
2023-03-04T10:05:28.725Z,47.26
2023-03-04T10:07:55.093Z,47.33
2023-03-04T10:10:21.560Z,46.73
2023-03-04T10:12:48.081Z,46.89
2023-03-04T10:15:14.483Z,47.14
2023-03-04T10:17:40.885Z,47.44
2023-03-04T10:20:07.292Z,47.81
2023-03-04T10:22:33.741Z,48.22
2023-03-04T10:25:00.160Z,47.08
2023-03-04T10:27:26.583Z,47.34
2023-03-04T10:29:52.943Z,47.36
2023-03-04T10:32:19.466Z,47.92
2023-03-04T10:34:45.890Z,48.18
2023-03-04T10:37:12.384Z,47.78
2023-03-04T10:39:38.884Z,48.38
2023-03-04T10:42:05.408Z,47.38
2023-03-04T10:44:31.860Z,47.72
2023-03-04T10:46:58.259Z,49.51
2023-03-04T10:49:24.622Z,49.60
2023-03-04T10:51:50.979Z,48.46
2023-03-04T10:54:17.330Z,49.51
2023-03-04T10:56:43.692Z,49.67
2023-03-04T10:59:10.118Z,49.31
2023-03-04T11:01:36.481Z,50.37
2023-03-04T11:04:02.914Z,49.51
2023-03-04T11:06:29.302Z,49.17
2023-03-04T11:08:55.702Z,50.00
2023-03-04T11:11:22.061Z,50.59
2023-03-04T11:13:48.464Z,49.90
2023-03-04T11:16:14.875Z,49.14
2023-03-04T11:18:41.265Z,49.33
2023-03-04T11:21:07.689Z,48.98
2023-03-04T11:23:34.052Z,47.63
2023-03-04T11:26:00.455Z,45.83
2023-03-04T11:28:26.880Z,47.63
2023-03-04T11:30:53.311Z,46.72
2023-03-04T11:33:19.707Z,47.61
2023-03-04T11:35:46.158Z,46.74
2023-03-04T11:38:12.536Z,48.08
2023-03-04T11:40:39.002Z,47.44
2023-03-04T11:43:05.441Z,45.75
2023-03-04T11:45:33.835Z,47.40
2023-03-04T11:48:00.447Z,47.76
2023-03-04T11:50:26.811Z,47.42
2023-03-04T11:52:53.366Z,48.17
2023-03-04T11:55:19.795Z,49.99
2023-03-04T11:57:46.373Z,50.27
2023-03-04T12:00:12.736Z,49.39
2023-03-04T12:02:39.135Z,47.80
2023-03-04T12:05:05.503Z,47.11
2023-03-04T12:07:31.917Z,47.54
2023-03-04T12:09:58.284Z,46.03
2023-03-04T12:12:24.700Z,46.00
2023-03-04T12:14:51.103Z,45.30
2023-03-04T12:17:17.491Z,45.91
2023-03-04T12:19:43.851Z,44.75
2023-03-04T12:22:10.194Z,44.69
2023-03-04T12:24:36.563Z,44.68
2023-03-04T12:27:02.932Z,44.37
2023-03-04T12:29:29.346Z,44.07
2023-03-04T12:31:55.785Z,43.00
2023-03-04T12:34:22.209Z,41.71
2023-03-04T12:36:48.611Z,41.68
2023-03-04T12:39:14.967Z,41.05
2023-03-04T12:41:41.369Z,40.22
2023-03-04T12:44:07.836Z,40.40
2023-03-04T12:46:34.237Z,40.78
2023-03-04T12:49:00.678Z,40.34
2023-03-04T12:51:27.076Z,40.07
2023-03-04T12:53:53.507Z,39.26
2023-03-04T12:56:19.929Z,39.58
2023-03-04T12:58:46.296Z,39.36
2023-03-04T13:01:12.683Z,38.58
2023-03-04T13:03:39.102Z,38.14
2023-03-04T13:06:05.494Z,38.07
2023-03-04T13:08:31.852Z,38.02
2023-03-04T13:10:58.361Z,38.67
2023-03-04T13:13:24.787Z,37.82
2023-03-04T13:15:51.210Z,38.51
2023-03-04T13:18:17.639Z,38.74
2023-03-04T13:20:44.034Z,39.50
2023-03-04T13:23:10.421Z,38.54
2023-03-04T13:25:36.800Z,38.59
2023-03-04T13:28:03.203Z,39.06
2023-03-04T13:30:29.587Z,38.44
2023-03-04T13:32:55.959Z,39.83
2023-03-04T13:35:22.332Z,39.49
2023-03-04T13:37:48.748Z,39.10
2023-03-04T13:40:15.192Z,38.00
2023-03-04T13:42:41.578Z,37.37
2023-03-04T13:45:08.015Z,38.71
2023-03-04T13:47:34.436Z,39.14
2023-03-04T13:50:00.798Z,38.36
2023-03-04T13:52:27.197Z,36.71
2023-03-04T13:54:53.618Z,37.86
2023-03-04T13:57:20.033Z,37.95
2023-03-04T13:59:46.409Z,37.27
2023-03-04T14:02:12.809Z,36.84
2023-03-04T14:04:39.224Z,35.70
2023-03-04T14:07:05.575Z,35.69
2023-03-04T14:09:31.929Z,34.28
2023-03-04T14:11:58.321Z,30.13
2023-03-04T14:14:24.835Z,36.05
2023-03-04T14:16:51.258Z,35.50
2023-03-04T14:19:17.632Z,35.97
2023-03-04T14:21:44.027Z,36.48
2023-03-04T14:24:10.419Z,36.57
2023-03-04T14:26:36.787Z,35.13
2023-03-04T14:29:03.130Z,34.58
2023-03-04T14:31:29.589Z,35.39
2023-03-04T14:33:56.009Z,34.39
2023-03-04T14:36:22.397Z,33.76
2023-03-04T14:38:48.817Z,31.81
2023-03-04T14:41:15.187Z,28.28
2023-03-04T14:43:41.587Z,33.81
2023-03-04T14:46:08.002Z,33.27
2023-03-04T14:48:34.473Z,34.29
2023-03-04T14:51:00.882Z,34.32
2023-03-04T14:53:27.286Z,33.74
2023-03-04T14:55:53.682Z,33.08
2023-03-04T14:58:20.090Z,31.08
2023-03-04T15:00:46.496Z,31.90
2023-03-04T15:03:15.322Z,32.50
2023-03-04T15:05:41.934Z,32.45
2023-03-04T15:08:08.292Z,32.65
2023-03-04T15:10:34.655Z,32.74
2023-03-04T15:13:01.036Z,32.86
2023-03-04T15:15:27.543Z,33.56
2023-03-04T15:17:53.895Z,32.79
2023-03-04T15:20:20.274Z,32.74
2023-03-04T15:22:46.631Z,33.38
2023-03-04T15:25:12.988Z,33.31
2023-03-04T15:27:39.336Z,33.35
2023-03-04T15:30:05.716Z,32.70
2023-03-04T15:32:32.142Z,32.93
2023-03-04T15:34:58.595Z,31.75
2023-03-04T15:37:24.988Z,32.34
2023-03-04T15:39:51.332Z,32.74
2023-03-04T15:42:17.730Z,33.03
2023-03-04T15:44:44.127Z,32.42
2023-03-04T15:47:10.476Z,32.84
2023-03-04T15:49:36.817Z,32.81
2023-03-04T15:52:03.190Z,32.32
2023-03-04T15:54:29.576Z,32.01
2023-03-04T15:56:55.916Z,33.01
2023-03-04T15:59:22.330Z,31.82
2023-03-04T16:01:48.728Z,32.20
2023-03-04T16:04:15.147Z,32.69
2023-03-04T16:06:41.548Z,31.56
2023-03-04T16:09:10.303Z,31.37
2023-03-04T16:11:36.930Z,32.04
2023-03-04T16:14:03.307Z,31.86
2023-03-04T16:16:29.656Z,32.21
2023-03-04T16:18:56.008Z,33.86
2023-03-04T16:21:22.374Z,34.18
2023-03-04T16:23:48.768Z,34.98
2023-03-04T16:26:15.140Z,35.01
2023-03-04T16:28:41.496Z,35.08
2023-03-04T16:31:07.874Z,35.28
2023-03-04T16:33:34.280Z,35.25
2023-03-04T16:36:00.760Z,35.85
2023-03-04T16:38:27.141Z,36.00
2023-03-04T16:40:53.535Z,36.75
2023-03-04T16:43:19.933Z,35.45
2023-03-04T16:45:46.359Z,36.87
2023-03-04T16:48:12.780Z,36.54
2023-03-04T16:50:39.204Z,36.22
2023-03-04T16:53:05.626Z,36.20
2023-03-04T16:55:32.022Z,36.53
2023-03-04T16:57:58.397Z,36.74
2023-03-04T17:00:24.797Z,36.38
2023-03-04T17:02:51.230Z,36.32
2023-03-04T17:05:17.610Z,38.38
2023-03-04T17:07:43.996Z,43.03
2023-03-04T17:10:10.393Z,39.16
2023-03-04T17:12:36.798Z,37.63
2023-03-04T17:15:03.151Z,36.25
2023-03-04T17:17:29.538Z,35.96
2023-03-04T17:19:55.901Z,35.64
2023-03-04T17:22:22.268Z,37.69
2023-03-04T17:24:48.634Z,36.11
2023-03-04T17:27:15.017Z,37.25
2023-03-04T17:29:41.422Z,36.61
2023-03-04T17:32:07.873Z,36.39
2023-03-04T17:34:34.248Z,37.06
2023-03-04T17:37:00.594Z,37.47
2023-03-04T17:39:26.982Z,35.94
2023-03-04T17:41:53.415Z,35.89
2023-03-04T17:44:19.821Z,35.57
2023-03-04T17:46:46.205Z,35.11
2023-03-04T17:49:12.624Z,37.23
2023-03-04T17:51:38.971Z,37.31
2023-03-04T17:54:05.325Z,36.38
2023-03-04T17:56:31.684Z,34.80
2023-03-04T17:58:58.076Z,36.40
2023-03-04T18:01:24.492Z,36.28
2023-03-04T18:03:50.890Z,36.57
2023-03-04T18:06:17.281Z,36.86
2023-03-04T18:08:43.648Z,36.82
2023-03-04T18:11:10.049Z,36.99
2023-03-04T18:13:36.409Z,36.99
2023-03-04T18:16:02.847Z,37.80
2023-03-04T18:18:29.285Z,38.34
2023-03-04T18:20:55.837Z,38.32
2023-03-04T18:23:22.238Z,39.22
2023-03-04T18:25:48.636Z,39.55
2023-03-04T18:28:15.035Z,39.75
2023-03-04T18:30:41.434Z,40.04
2023-03-04T18:33:07.825Z,73.38
2023-03-04T18:35:34.311Z,158.39
2023-03-04T18:38:00.713Z,55.10
2023-03-04T18:40:27.186Z,38.53
2023-03-04T18:42:53.548Z,38.29
2023-03-04T18:45:19.904Z,36.45
2023-03-04T18:47:46.290Z,35.35
2023-03-04T18:50:12.685Z,32.91
2023-03-04T18:52:39.058Z,33.34
2023-03-04T18:55:05.470Z,33.29
2023-03-04T18:57:31.896Z,31.71
2023-03-04T18:59:58.294Z,31.07
2023-03-04T19:02:24.772Z,30.20
2023-03-04T19:04:51.184Z,31.15
2023-03-04T19:07:17.556Z,30.25
2023-03-04T19:09:43.951Z,30.46
2023-03-04T19:12:10.318Z,32.53
2023-03-04T19:14:36.702Z,32.15
2023-03-04T19:17:03.070Z,31.97
2023-03-04T19:19:29.460Z,30.87
2023-03-04T19:21:55.868Z,32.03
2023-03-04T19:24:22.220Z,33.74
2023-03-04T19:26:48.614Z,35.00
2023-03-04T19:29:15.000Z,36.14
2023-03-04T19:31:41.684Z,34.42
2023-03-04T19:34:08.063Z,35.42
2023-03-04T19:36:34.475Z,37.53
2023-03-04T19:39:00.849Z,36.34
2023-03-04T19:41:27.240Z,33.51
2023-03-04T19:43:53.632Z,33.48
2023-03-04T19:46:20.019Z,31.93
2023-03-04T19:48:46.447Z,32.76
2023-03-04T19:51:12.809Z,32.63
2023-03-04T19:53:39.209Z,32.48
2023-03-04T19:56:05.581Z,32.58
2023-03-04T19:58:31.932Z,33.14
2023-03-04T20:00:58.305Z,32.50
2023-03-04T20:03:24.658Z,33.10
2023-03-04T20:05:51.054Z,31.84
2023-03-04T20:08:17.422Z,31.23
2023-03-04T20:10:43.818Z,30.53
2023-03-04T20:13:10.237Z,30.88
2023-03-04T20:15:36.607Z,30.03
2023-03-04T20:18:02.971Z,28.84
2023-03-04T20:20:29.352Z,28.81
2023-03-04T20:22:55.697Z,28.87
2023-03-04T20:25:22.032Z,28.37
2023-03-04T20:27:48.379Z,28.18
2023-03-04T20:30:14.849Z,28.36
2023-03-04T20:32:41.228Z,27.89
2023-03-04T20:35:07.575Z,27.93
2023-03-04T20:37:33.960Z,28.43
2023-03-04T20:40:00.330Z,27.66
2023-03-04T20:42:26.674Z,27.90
2023-03-04T20:44:53.074Z,28.69
2023-03-04T20:47:19.478Z,28.90
2023-03-04T20:49:45.884Z,28.53
2023-03-04T20:52:12.239Z,28.34
2023-03-04T20:54:38.636Z,28.99
2023-03-04T20:57:05.035Z,27.99
2023-03-04T20:59:31.375Z,26.80
2023-03-04T21:01:57.803Z,27.23
2023-03-04T21:04:24.183Z,28.03
2023-03-04T21:06:50.536Z,28.47
2023-03-04T21:09:16.895Z,28.78
2023-03-04T21:11:43.240Z,29.43
2023-03-04T21:14:09.628Z,29.08
2023-03-04T21:16:36.024Z,28.89
2023-03-04T21:19:02.391Z,28.10
2023-03-04T21:21:28.757Z,28.03
2023-03-04T21:23:55.169Z,27.43
2023-03-04T21:26:21.554Z,27.93
2023-03-04T21:28:47.957Z,26.72
2023-03-04T21:31:14.426Z,27.09
2023-03-04T21:33:40.853Z,27.39
2023-03-04T21:36:07.264Z,27.52
2023-03-04T21:38:33.658Z,26.93
2023-03-04T21:41:00.026Z,27.29
2023-03-04T21:43:26.373Z,27.13
2023-03-04T21:45:52.768Z,27.94
2023-03-04T21:48:19.143Z,27.13
2023-03-04T21:50:45.689Z,26.56
2023-03-04T21:53:12.115Z,26.27
2023-03-04T21:55:38.516Z,25.93
2023-03-04T21:58:04.875Z,25.49
2023-03-04T22:00:31.447Z,25.03
2023-03-04T22:02:57.844Z,25.05
2023-03-04T22:05:24.188Z,24.95
2023-03-04T22:07:50.574Z,25.00
2023-03-04T22:10:16.932Z,24.70
2023-03-04T22:12:43.332Z,24.48
2023-03-04T22:15:09.764Z,24.69
2023-03-04T22:17:36.152Z,24.25
2023-03-04T22:20:02.555Z,24.00
2023-03-04T22:22:28.923Z,23.72
2023-03-04T22:24:55.272Z,24.86
2023-03-04T22:27:21.663Z,24.27
2023-03-04T22:29:48.022Z,24.11
2023-03-04T22:32:14.462Z,24.02
2023-03-04T22:34:40.868Z,23.97
2023-03-04T22:37:07.259Z,23.80
2023-03-04T22:39:33.661Z,23.97
2023-03-04T22:42:00.018Z,24.14
2023-03-04T22:44:26.372Z,24.82
2023-03-04T22:46:52.720Z,24.68
2023-03-04T22:49:19.141Z,23.92
2023-03-04T22:51:45.557Z,24.48
2023-03-04T22:54:11.903Z,25.27
2023-03-04T22:56:38.254Z,24.97
2023-03-04T22:59:04.613Z,24.20
2023-03-04T23:01:31.018Z,24.69
2023-03-04T23:03:57.434Z,25.56
2023-03-04T23:06:23.831Z,25.44
2023-03-04T23:08:50.283Z,24.41
2023-03-04T23:11:16.647Z,25.29
2023-03-04T23:13:43.071Z,25.34
2023-03-04T23:16:09.610Z,25.13
2023-03-04T23:18:36.112Z,24.67
2023-03-04T23:21:02.513Z,24.49
2023-03-04T23:23:28.913Z,25.35
2023-03-04T23:25:55.283Z,25.11
2023-03-04T23:28:21.630Z,25.34
2023-03-04T23:30:48.042Z,24.62
2023-03-04T23:33:14.433Z,25.71
2023-03-04T23:35:40.930Z,25.45
2023-03-04T23:38:07.367Z,25.14
2023-03-04T23:40:33.719Z,25.59
2023-03-04T23:43:00.108Z,25.48
2023-03-04T23:45:26.469Z,26.15
2023-03-04T23:47:52.817Z,25.83
2023-03-04T23:50:19.160Z,25.72
2023-03-04T23:52:45.513Z,25.54
2023-03-04T23:55:11.859Z,25.90
2023-03-04T23:57:38.233Z,25.53
